sensor_id;sensor_type;location;lat;lon;timestamp;temperature;humidity
14000;DHT22;7075;53.574;10.054;2023-01-26T00:01:15;-0.70;99.90
14000;DHT22;7075;53.574;10.054;2023-01-26T00:03:41;-0.70;99.90
14000;DHT22;7075;53.574;10.054;2023-01-26T00:06:09;-0.60;99.90
14000;DHT22;7075;53.574;10.054;2023-01-26T00:08:36;-0.50;99.90
14000;DHT22;7075;53.574;10.054;2023-01-26T00:11:04;-0.50;99.90
14000;DHT22;7075;53.574;10.054;2023-01-26T00:13:29;-0.40;99.90
14000;DHT22;7075;53.574;10.054;2023-01-26T00:15:55;-0.50;99.90
14000;DHT22;7075;53.574;10.054;2023-01-26T00:18:21;-0.40;99.90
14000;DHT22;7075;53.574;10.054;2023-01-26T00:20:46;-0.50;99.90
14000;DHT22;7075;53.574;10.054;2023-01-26T00:23:13;-0.50;99.90
14000;DHT22;7075;53.574;10.054;2023-01-26T00:25:38;-0.40;99.90
14000;DHT22;7075;53.574;10.054;2023-01-26T00:28:06;-0.40;99.90
14000;DHT22;7075;53.574;10.054;2023-01-26T00:30:32;-0.50;99.90
14000;DHT22;7075;53.574;10.054;2023-01-26T00:32:57;-0.60;99.90
14000;DHT22;7075;53.574;10.054;2023-01-26T00:35:23;-0.60;99.90
14000;DHT22;7075;53.574;10.054;2023-01-26T00:37:48;-0.60;99.90
14000;DHT22;7075;53.574;10.054;2023-01-26T00:40:14;-0.60;99.90
14000;DHT22;7075;53.574;10.054;2023-01-26T00:42:40;-0.50;99.90
14000;DHT22;7075;53.574;10.054;2023-01-26T00:45:06;-0.50;99.90
14000;DHT22;7075;53.574;10.054;2023-01-26T00:47:32;-0.40;99.90
14000;DHT22;7075;53.574;10.054;2023-01-26T00:49:57;-0.40;99.90
14000;DHT22;7075;53.574;10.054;2023-01-26T00:52:23;-0.40;99.90
14000;DHT22;7075;53.574;10.054;2023-01-26T00:54:49;-0.50;99.90
14000;DHT22;7075;53.574;10.054;2023-01-26T00:57:14;-0.50;99.90
14000;DHT22;7075;53.574;10.054;2023-01-26T00:59:39;-0.40;99.90
14000;DHT22;7075;53.574;10.054;2023-01-26T01:02:05;-0.40;99.90
14000;DHT22;7075;53.574;10.054;2023-01-26T01:04:31;-0.40;99.90
14000;DHT22;7075;53.574;10.054;2023-01-26T01:06:57;-0.40;99.90
14000;DHT22;7075;53.574;10.054;2023-01-26T01:09:23;-0.30;99.90
14000;DHT22;7075;53.574;10.054;2023-01-26T01:11:49;-0.40;99.90
14000;DHT22;7075;53.574;10.054;2023-01-26T01:14:14;-0.30;99.90
14000;DHT22;7075;53.574;10.054;2023-01-26T01:16:41;-0.30;99.90
14000;DHT22;7075;53.574;10.054;2023-01-26T01:19:07;-0.40;99.90
14000;DHT22;7075;53.574;10.054;2023-01-26T01:21:32;-0.40;99.90
14000;DHT22;7075;53.574;10.054;2023-01-26T01:24:00;-0.40;99.90
14000;DHT22;7075;53.574;10.054;2023-01-26T01:26:26;-0.40;99.90
14000;DHT22;7075;53.574;10.054;2023-01-26T01:28:55;-0.40;99.90
14000;DHT22;7075;53.574;10.054;2023-01-26T01:31:21;-0.50;99.90
14000;DHT22;7075;53.574;10.054;2023-01-26T01:33:47;-0.50;99.90
14000;DHT22;7075;53.574;10.054;2023-01-26T01:36:14;-0.40;99.90
14000;DHT22;7075;53.574;10.054;2023-01-26T01:38:42;-0.30;99.90
14000;DHT22;7075;53.574;10.054;2023-01-26T01:41:08;-0.40;99.90
14000;DHT22;7075;53.574;10.054;2023-01-26T01:43:35;-0.40;99.90
14000;DHT22;7075;53.574;10.054;2023-01-26T01:46:02;-0.40;99.90
14000;DHT22;7075;53.574;10.054;2023-01-26T01:51:12;-0.30;99.90
14000;DHT22;7075;53.574;10.054;2023-01-26T01:53:42;-0.40;99.90
14000;DHT22;7075;53.574;10.054;2023-01-26T01:56:14;-0.30;99.90
14000;DHT22;7075;53.574;10.054;2023-01-26T01:58:44;-0.40;99.90
14000;DHT22;7075;53.574;10.054;2023-01-26T02:01:10;-0.50;99.90
14000;DHT22;7075;53.574;10.054;2023-01-26T02:03:36;-0.50;99.90
14000;DHT22;7075;53.574;10.054;2023-01-26T02:06:15;-0.50;99.90
14000;DHT22;7075;53.574;10.054;2023-01-26T02:08:45;-0.40;99.90
14000;DHT22;7075;53.574;10.054;2023-01-26T02:11:15;-0.50;99.90
14000;DHT22;7075;53.574;10.054;2023-01-26T02:13:43;-0.40;99.90
14000;DHT22;7075;53.574;10.054;2023-01-26T02:16:10;-0.40;99.90
14000;DHT22;7075;53.574;10.054;2023-01-26T02:18:36;-0.40;99.90
14000;DHT22;7075;53.574;10.054;2023-01-26T02:21:06;-0.40;99.90
14000;DHT22;7075;53.574;10.054;2023-01-26T02:23:47;-0.30;99.90
14000;DHT22;7075;53.574;10.054;2023-01-26T02:26:38;-0.40;99.90
14000;DHT22;7075;53.574;10.054;2023-01-26T02:29:07;-0.30;99.90
14000;DHT22;7075;53.574;10.054;2023-01-26T02:31:33;-0.30;99.90
14000;DHT22;7075;53.574;10.054;2023-01-26T02:33:59;-0.30;99.90
14000;DHT22;7075;53.574;10.054;2023-01-26T02:36:28;-0.20;99.90
14000;DHT22;7075;53.574;10.054;2023-01-26T02:41:41;-0.20;99.90
14000;DHT22;7075;53.574;10.054;2023-01-26T02:44:26;-0.20;99.90
14000;DHT22;7075;53.574;10.054;2023-01-26T02:46:52;-0.20;99.90
14000;DHT22;7075;53.574;10.054;2023-01-26T02:49:18;-0.30;99.90
14000;DHT22;7075;53.574;10.054;2023-01-26T02:52:03;-0.30;99.90
14000;DHT22;7075;53.574;10.054;2023-01-26T02:54:29;-0.20;99.90
14000;DHT22;7075;53.574;10.054;2023-01-26T02:57:13;-0.20;99.90
14000;DHT22;7075;53.574;10.054;2023-01-26T02:59:39;-0.20;99.90
14000;DHT22;7075;53.574;10.054;2023-01-26T03:02:05;-0.20;99.90
14000;DHT22;7075;53.574;10.054;2023-01-26T03:04:31;-0.20;99.90
14000;DHT22;7075;53.574;10.054;2023-01-26T03:06:56;-0.10;99.90
14000;DHT22;7075;53.574;10.054;2023-01-26T03:09:22;-0.10;99.90
14000;DHT22;7075;53.574;10.054;2023-01-26T03:11:47;-0.20;99.90
14000;DHT22;7075;53.574;10.054;2023-01-26T03:14:14;-0.20;99.90
14000;DHT22;7075;53.574;10.054;2023-01-26T03:16:40;-0.20;99.90
14000;DHT22;7075;53.574;10.054;2023-01-26T03:19:06;-0.20;99.90
14000;DHT22;7075;53.574;10.054;2023-01-26T03:21:51;-0.10;99.90
14000;DHT22;7075;53.574;10.054;2023-01-26T03:24:36;0.00;99.90
14000;DHT22;7075;53.574;10.054;2023-01-26T03:27:20;0.00;99.90
14000;DHT22;7075;53.574;10.054;2023-01-26T03:29:52;-0.10;99.90
14000;DHT22;7075;53.574;10.054;2023-01-26T03:32:18;-0.10;99.90
14000;DHT22;7075;53.574;10.054;2023-01-26T03:34:43;-0.20;99.90
14000;DHT22;7075;53.574;10.054;2023-01-26T03:37:09;-0.10;99.90
14000;DHT22;7075;53.574;10.054;2023-01-26T03:39:35;-0.10;99.90
14000;DHT22;7075;53.574;10.054;2023-01-26T03:42:19;-0.10;99.90
14000;DHT22;7075;53.574;10.054;2023-01-26T03:45:04;-0.10;99.90
14000;DHT22;7075;53.574;10.054;2023-01-26T03:47:49;-0.10;99.90
14000;DHT22;7075;53.574;10.054;2023-01-26T03:50:33;-0.10;99.90
14000;DHT22;7075;53.574;10.054;2023-01-26T03:53:22;-0.20;99.90
14000;DHT22;7075;53.574;10.054;2023-01-26T03:56:10;-0.10;99.90
14000;DHT22;7075;53.574;10.054;2023-01-26T03:58:51;0.00;99.90
14000;DHT22;7075;53.574;10.054;2023-01-26T04:01:18;0.10;99.90
14000;DHT22;7075;53.574;10.054;2023-01-26T04:03:50;0.10;99.90
14000;DHT22;7075;53.574;10.054;2023-01-26T04:06:35;0.10;99.90
14000;DHT22;7075;53.574;10.054;2023-01-26T04:09:21;0.10;99.90
14000;DHT22;7075;53.574;10.054;2023-01-26T04:11:47;0.10;99.90
14000;DHT22;7075;53.574;10.054;2023-01-26T04:14:14;-0.10;99.90
14000;DHT22;7075;53.574;10.054;2023-01-26T04:17:02;-0.10;99.90
14000;DHT22;7075;53.574;10.054;2023-01-26T04:19:47;-0.10;99.90
14000;DHT22;7075;53.574;10.054;2023-01-26T04:22:37;0.00;99.90
14000;DHT22;7075;53.574;10.054;2023-01-26T04:25:11;0.00;99.90
14000;DHT22;7075;53.574;10.054;2023-01-26T04:27:38;0.00;99.90
14000;DHT22;7075;53.574;10.054;2023-01-26T04:30:05;0.00;99.90
14000;DHT22;7075;53.574;10.054;2023-01-26T04:32:31;0.00;99.90
14000;DHT22;7075;53.574;10.054;2023-01-26T04:34:56;0.10;99.90
14000;DHT22;7075;53.574;10.054;2023-01-26T04:37:22;0.10;99.90
14000;DHT22;7075;53.574;10.054;2023-01-26T04:39:47;0.20;99.90
14000;DHT22;7075;53.574;10.054;2023-01-26T04:42:13;0.20;99.90
14000;DHT22;7075;53.574;10.054;2023-01-26T04:44:38;0.20;99.90
14000;DHT22;7075;53.574;10.054;2023-01-26T04:47:04;0.20;99.90
14000;DHT22;7075;53.574;10.054;2023-01-26T04:49:30;0.20;99.90
14000;DHT22;7075;53.574;10.054;2023-01-26T04:51:58;0.20;99.90
14000;DHT22;7075;53.574;10.054;2023-01-26T04:54:24;0.20;99.90
14000;DHT22;7075;53.574;10.054;2023-01-26T04:56:49;0.20;99.90
14000;DHT22;7075;53.574;10.054;2023-01-26T04:59:16;0.30;99.90
14000;DHT22;7075;53.574;10.054;2023-01-26T05:01:42;0.30;99.90
14000;DHT22;7075;53.574;10.054;2023-01-26T05:04:09;0.20;99.90
14000;DHT22;7075;53.574;10.054;2023-01-26T05:06:36;0.30;99.90
14000;DHT22;7075;53.574;10.054;2023-01-26T05:09:03;0.30;99.90
14000;DHT22;7075;53.574;10.054;2023-01-26T05:11:29;0.30;99.90
14000;DHT22;7075;53.574;10.054;2023-01-26T05:13:54;0.20;99.90
14000;DHT22;7075;53.574;10.054;2023-01-26T05:16:20;0.20;99.90
14000;DHT22;7075;53.574;10.054;2023-01-26T05:18:46;0.30;99.90
14000;DHT22;7075;53.574;10.054;2023-01-26T05:21:11;0.30;99.90
14000;DHT22;7075;53.574;10.054;2023-01-26T05:23:37;0.30;99.90
14000;DHT22;7075;53.574;10.054;2023-01-26T05:26:03;0.20;99.90
14000;DHT22;7075;53.574;10.054;2023-01-26T05:28:29;0.20;99.90
14000;DHT22;7075;53.574;10.054;2023-01-26T05:30:54;0.30;99.90
14000;DHT22;7075;53.574;10.054;2023-01-26T05:33:20;0.30;99.90
14000;DHT22;7075;53.574;10.054;2023-01-26T05:35:50;0.30;99.90
14000;DHT22;7075;53.574;10.054;2023-01-26T05:38:16;0.30;99.90
14000;DHT22;7075;53.574;10.054;2023-01-26T05:40:42;0.30;99.90
14000;DHT22;7075;53.574;10.054;2023-01-26T05:43:07;0.30;99.90
14000;DHT22;7075;53.574;10.054;2023-01-26T05:45:34;0.30;99.90
14000;DHT22;7075;53.574;10.054;2023-01-26T05:47:59;0.30;99.90
14000;DHT22;7075;53.574;10.054;2023-01-26T05:50:25;0.30;99.90
14000;DHT22;7075;53.574;10.054;2023-01-26T05:52:51;0.40;99.90
14000;DHT22;7075;53.574;10.054;2023-01-26T05:55:17;0.40;99.90
14000;DHT22;7075;53.574;10.054;2023-01-26T05:57:43;0.40;99.90
14000;DHT22;7075;53.574;10.054;2023-01-26T06:00:10;0.40;99.90
14000;DHT22;7075;53.574;10.054;2023-01-26T06:02:35;0.40;99.90
14000;DHT22;7075;53.574;10.054;2023-01-26T06:05:01;0.40;99.90
14000;DHT22;7075;53.574;10.054;2023-01-26T06:07:27;0.40;99.90
14000;DHT22;7075;53.574;10.054;2023-01-26T06:09:52;0.40;99.90
14000;DHT22;7075;53.574;10.054;2023-01-26T06:12:20;0.40;99.90
14000;DHT22;7075;53.574;10.054;2023-01-26T06:14:46;0.40;99.90
14000;DHT22;7075;53.574;10.054;2023-01-26T06:17:12;0.40;99.90
14000;DHT22;7075;53.574;10.054;2023-01-26T06:19:38;0.40;99.90
14000;DHT22;7075;53.574;10.054;2023-01-26T06:22:08;0.50;99.90
14000;DHT22;7075;53.574;10.054;2023-01-26T06:24:33;0.50;99.90
14000;DHT22;7075;53.574;10.054;2023-01-26T06:26:59;0.40;99.90
14000;DHT22;7075;53.574;10.054;2023-01-26T06:29:25;0.40;99.90
14000;DHT22;7075;53.574;10.054;2023-01-26T06:31:51;0.40;99.90
14000;DHT22;7075;53.574;10.054;2023-01-26T06:34:17;0.50;99.90
14000;DHT22;7075;53.574;10.054;2023-01-26T06:36:43;0.40;99.90
14000;DHT22;7075;53.574;10.054;2023-01-26T06:39:10;0.40;99.90
14000;DHT22;7075;53.574;10.054;2023-01-26T06:41:36;0.40;99.90
14000;DHT22;7075;53.574;10.054;2023-01-26T06:44:01;0.50;99.90
14000;DHT22;7075;53.574;10.054;2023-01-26T06:46:27;0.50;99.90
14000;DHT22;7075;53.574;10.054;2023-01-26T06:48:53;0.50;99.90
14000;DHT22;7075;53.574;10.054;2023-01-26T06:53:55;0.50;99.90
14000;DHT22;7075;53.574;10.054;2023-01-26T06:56:22;0.50;99.90
14000;DHT22;7075;53.574;10.054;2023-01-26T06:58:48;0.50;99.90
14000;DHT22;7075;53.574;10.054;2023-01-26T07:01:16;0.50;99.90
14000;DHT22;7075;53.574;10.054;2023-01-26T07:03:42;0.50;99.90
14000;DHT22;7075;53.574;10.054;2023-01-26T07:06:07;0.60;99.90
14000;DHT22;7075;53.574;10.054;2023-01-26T07:08:36;0.50;99.90
14000;DHT22;7075;53.574;10.054;2023-01-26T07:11:02;0.50;99.90
14000;DHT22;7075;53.574;10.054;2023-01-26T07:13:27;0.50;99.90
14000;DHT22;7075;53.574;10.054;2023-01-26T07:16:03;0.60;99.90
14000;DHT22;7075;53.574;10.054;2023-01-26T07:18:29;0.60;99.90
14000;DHT22;7075;53.574;10.054;2023-01-26T07:21:02;0.50;99.90
14000;DHT22;7075;53.574;10.054;2023-01-26T07:23:28;0.50;99.90
14000;DHT22;7075;53.574;10.054;2023-01-26T07:25:54;0.60;99.90
14000;DHT22;7075;53.574;10.054;2023-01-26T07:28:19;0.60;99.90
14000;DHT22;7075;53.574;10.054;2023-01-26T07:30:45;0.70;99.90
14000;DHT22;7075;53.574;10.054;2023-01-26T07:33:11;0.70;99.90
14000;DHT22;7075;53.574;10.054;2023-01-26T07:35:36;0.70;99.90
14000;DHT22;7075;53.574;10.054;2023-01-26T07:38:06;0.70;99.90
14000;DHT22;7075;53.574;10.054;2023-01-26T07:40:32;0.60;99.90
14000;DHT22;7075;53.574;10.054;2023-01-26T07:42:58;0.50;99.90
14000;DHT22;7075;53.574;10.054;2023-01-26T07:45:25;0.50;99.90
14000;DHT22;7075;53.574;10.054;2023-01-26T07:47:53;0.50;99.90
14000;DHT22;7075;53.574;10.054;2023-01-26T07:50:19;0.60;99.90
14000;DHT22;7075;53.574;10.054;2023-01-26T07:52:46;0.60;99.90
14000;DHT22;7075;53.574;10.054;2023-01-26T07:55:12;0.60;99.90
14000;DHT22;7075;53.574;10.054;2023-01-26T07:57:38;0.60;99.90
14000;DHT22;7075;53.574;10.054;2023-01-26T08:00:04;0.60;99.90
14000;DHT22;7075;53.574;10.054;2023-01-26T08:02:30;0.60;99.90
14000;DHT22;7075;53.574;10.054;2023-01-26T08:04:55;0.60;99.90
14000;DHT22;7075;53.574;10.054;2023-01-26T08:07:21;0.70;99.90
14000;DHT22;7075;53.574;10.054;2023-01-26T08:09:47;0.70;99.90
14000;DHT22;7075;53.574;10.054;2023-01-26T08:12:12;0.70;99.90
14000;DHT22;7075;53.574;10.054;2023-01-26T08:14:38;0.70;99.90
14000;DHT22;7075;53.574;10.054;2023-01-26T08:17:03;0.70;99.90
14000;DHT22;7075;53.574;10.054;2023-01-26T08:19:29;0.70;99.90
14000;DHT22;7075;53.574;10.054;2023-01-26T08:21:54;0.70;99.90
14000;DHT22;7075;53.574;10.054;2023-01-26T08:24:21;0.80;99.90
14000;DHT22;7075;53.574;10.054;2023-01-26T08:26:47;0.80;99.90
14000;DHT22;7075;53.574;10.054;2023-01-26T08:29:12;0.80;99.90
14000;DHT22;7075;53.574;10.054;2023-01-26T08:31:38;0.80;99.90
14000;DHT22;7075;53.574;10.054;2023-01-26T08:34:03;0.90;99.90
14000;DHT22;7075;53.574;10.054;2023-01-26T08:36:29;0.90;99.90
14000;DHT22;7075;53.574;10.054;2023-01-26T08:38:55;0.90;99.90
14000;DHT22;7075;53.574;10.054;2023-01-26T08:41:21;0.80;99.90
14000;DHT22;7075;53.574;10.054;2023-01-26T08:43:46;0.70;99.90
14000;DHT22;7075;53.574;10.054;2023-01-26T08:46:12;0.70;99.90
14000;DHT22;7075;53.574;10.054;2023-01-26T08:48:38;0.80;99.90
14000;DHT22;7075;53.574;10.054;2023-01-26T08:51:05;0.80;99.90
14000;DHT22;7075;53.574;10.054;2023-01-26T08:53:31;0.80;99.90
14000;DHT22;7075;53.574;10.054;2023-01-26T08:56:00;0.80;99.90
14000;DHT22;7075;53.574;10.054;2023-01-26T08:58:26;0.80;99.90
14000;DHT22;7075;53.574;10.054;2023-01-26T09:00:53;0.80;99.90
14000;DHT22;7075;53.574;10.054;2023-01-26T09:03:18;0.90;99.90
14000;DHT22;7075;53.574;10.054;2023-01-26T09:05:44;0.90;99.90
14000;DHT22;7075;53.574;10.054;2023-01-26T09:08:10;0.90;99.90
14000;DHT22;7075;53.574;10.054;2023-01-26T09:10:37;0.90;99.90
14000;DHT22;7075;53.574;10.054;2023-01-26T09:13:03;0.90;99.90
14000;DHT22;7075;53.574;10.054;2023-01-26T09:15:28;0.90;99.90
14000;DHT22;7075;53.574;10.054;2023-01-26T09:17:54;0.90;99.90
14000;DHT22;7075;53.574;10.054;2023-01-26T09:20:20;0.90;99.90
14000;DHT22;7075;53.574;10.054;2023-01-26T09:22:45;0.90;99.90
14000;DHT22;7075;53.574;10.054;2023-01-26T09:25:12;1.00;99.90
14000;DHT22;7075;53.574;10.054;2023-01-26T09:27:38;1.10;99.90
14000;DHT22;7075;53.574;10.054;2023-01-26T09:30:05;1.00;99.90
14000;DHT22;7075;53.574;10.054;2023-01-26T09:32:31;1.00;99.90
14000;DHT22;7075;53.574;10.054;2023-01-26T09:34:56;1.00;99.90
14000;DHT22;7075;53.574;10.054;2023-01-26T09:37:22;1.10;99.90
14000;DHT22;7075;53.574;10.054;2023-01-26T09:39:47;1.10;99.90
14000;DHT22;7075;53.574;10.054;2023-01-26T09:50:51;1.10;99.90
14000;DHT22;7075;53.574;10.054;2023-01-26T09:53:26;1.10;99.90
14000;DHT22;7075;53.574;10.054;2023-01-26T09:55:54;1.10;99.90
14000;DHT22;7075;53.574;10.054;2023-01-26T09:58:34;1.00;99.90
14000;DHT22;7075;53.574;10.054;2023-01-26T10:01:02;1.00;99.90
14000;DHT22;7075;53.574;10.054;2023-01-26T10:03:33;1.00;99.90
14000;DHT22;7075;53.574;10.054;2023-01-26T10:06:22;1.00;99.90
14000;DHT22;7075;53.574;10.054;2023-01-26T10:08:51;1.10;99.90
14000;DHT22;7075;53.574;10.054;2023-01-26T10:11:24;1.10;99.90
14000;DHT22;7075;53.574;10.054;2023-01-26T10:13:56;1.10;99.90
14000;DHT22;7075;53.574;10.054;2023-01-26T10:16:23;1.20;99.90
14000;DHT22;7075;53.574;10.054;2023-01-26T10:21:20;1.30;99.90
14000;DHT22;7075;53.574;10.054;2023-01-26T10:23:47;1.30;99.90
14000;DHT22;7075;53.574;10.054;2023-01-26T10:26:16;1.30;99.90
14000;DHT22;7075;53.574;10.054;2023-01-26T10:28:44;1.30;99.90
14000;DHT22;7075;53.574;10.054;2023-01-26T10:31:20;1.30;99.90
14000;DHT22;7075;53.574;10.054;2023-01-26T10:33:56;1.40;99.90
14000;DHT22;7075;53.574;10.054;2023-01-26T10:36:23;1.40;99.90
14000;DHT22;7075;53.574;10.054;2023-01-26T10:38:50;1.40;99.90
14000;DHT22;7075;53.574;10.054;2023-01-26T10:41:27;1.40;99.90
14000;DHT22;7075;53.574;10.054;2023-01-26T10:43:58;1.40;99.90
14000;DHT22;7075;53.574;10.054;2023-01-26T10:46:33;1.40;99.90
14000;DHT22;7075;53.574;10.054;2023-01-26T10:49:02;1.30;99.90
14000;DHT22;7075;53.574;10.054;2023-01-26T10:51:32;1.40;99.90
14000;DHT22;7075;53.574;10.054;2023-01-26T10:56:56;1.40;99.90
14000;DHT22;7075;53.574;10.054;2023-01-26T10:59:38;1.50;99.90
14000;DHT22;7075;53.574;10.054;2023-01-26T11:05:12;1.60;99.90
14000;DHT22;7075;53.574;10.054;2023-01-26T11:07:40;1.60;99.90
14000;DHT22;7075;53.574;10.054;2023-01-26T11:10:32;1.60;99.90
14000;DHT22;7075;53.574;10.054;2023-01-26T11:15:40;1.70;99.90
14000;DHT22;7075;53.574;10.054;2023-01-26T11:42:49;2.00;99.90
14000;DHT22;7075;53.574;10.054;2023-01-26T11:50:39;2.20;99.90
14000;DHT22;7075;53.574;10.054;2023-01-26T11:53:15;2.20;99.90
14000;DHT22;7075;53.574;10.054;2023-01-26T11:55:48;2.20;99.90
14000;DHT22;7075;53.574;10.054;2023-01-26T11:58:45;2.30;99.90
14000;DHT22;7075;53.574;10.054;2023-01-26T12:01:17;2.30;99.90
14000;DHT22;7075;53.574;10.054;2023-01-26T12:03:45;2.40;99.90
14000;DHT22;7075;53.574;10.054;2023-01-26T12:06:24;2.40;99.90
14000;DHT22;7075;53.574;10.054;2023-01-26T12:11:38;2.30;99.90
14000;DHT22;7075;53.574;10.054;2023-01-26T12:14:35;2.30;99.90
14000;DHT22;7075;53.574;10.054;2023-01-26T12:22:41;2.40;99.90
14000;DHT22;7075;53.574;10.054;2023-01-26T12:30:56;2.50;99.90
14000;DHT22;7075;53.574;10.054;2023-01-26T12:33:25;2.40;99.90
14000;DHT22;7075;53.574;10.054;2023-01-26T12:36:14;2.50;99.90
14000;DHT22;7075;53.574;10.054;2023-01-26T12:39:02;2.50;99.90
14000;DHT22;7075;53.574;10.054;2023-01-26T12:47:18;2.50;99.90
14000;DHT22;7075;53.574;10.054;2023-01-26T12:52:37;2.60;99.90
14000;DHT22;7075;53.574;10.054;2023-01-26T12:55:31;2.60;99.90
14000;DHT22;7075;53.574;10.054;2023-01-26T13:00:28;2.60;99.90
14000;DHT22;7075;53.574;10.054;2023-01-26T13:02:59;2.60;99.90
14000;DHT22;7075;53.574;10.054;2023-01-26T13:05:32;2.60;99.90
14000;DHT22;7075;53.574;10.054;2023-01-26T13:10:58;2.60;99.90
14000;DHT22;7075;53.574;10.054;2023-01-26T13:13:29;2.60;99.90
14000;DHT22;7075;53.574;10.054;2023-01-26T13:18:56;2.60;99.90
14000;DHT22;7075;53.574;10.054;2023-01-26T13:23:56;2.60;99.90
14000;DHT22;7075;53.574;10.054;2023-01-26T13:34:37;2.60;99.90
14000;DHT22;7075;53.574;10.054;2023-01-26T13:37:13;2.60;99.90
14000;DHT22;7075;53.574;10.054;2023-01-26T13:39:41;2.70;99.90
14000;DHT22;7075;53.574;10.054;2023-01-26T13:42:32;2.70;99.90
14000;DHT22;7075;53.574;10.054;2023-01-26T13:45:03;2.60;99.90
14000;DHT22;7075;53.574;10.054;2023-01-26T13:47:38;2.60;99.90
14000;DHT22;7075;53.574;10.054;2023-01-26T13:50:30;2.60;99.90
14000;DHT22;7075;53.574;10.054;2023-01-26T13:52:57;2.60;99.90
14000;DHT22;7075;53.574;10.054;2023-01-26T13:55:30;2.60;99.90
14000;DHT22;7075;53.574;10.054;2023-01-26T13:58:17;2.60;99.90
14000;DHT22;7075;53.574;10.054;2023-01-26T14:00:57;2.60;99.90
14000;DHT22;7075;53.574;10.054;2023-01-26T14:03:23;2.60;99.90
14000;DHT22;7075;53.574;10.054;2023-01-26T14:05:59;2.60;99.90
14000;DHT22;7075;53.574;10.054;2023-01-26T14:08:27;2.70;99.90
14000;DHT22;7075;53.574;10.054;2023-01-26T14:10:54;2.70;99.90
14000;DHT22;7075;53.574;10.054;2023-01-26T14:13:36;2.70;99.90
14000;DHT22;7075;53.574;10.054;2023-01-26T14:16:05;2.70;99.90
14000;DHT22;7075;53.574;10.054;2023-01-26T14:18:31;2.70;99.90
14000;DHT22;7075;53.574;10.054;2023-01-26T14:21:20;2.80;99.90
14000;DHT22;7075;53.574;10.054;2023-01-26T14:23:53;2.80;99.90
14000;DHT22;7075;53.574;10.054;2023-01-26T14:26:23;2.80;99.90
14000;DHT22;7075;53.574;10.054;2023-01-26T14:28:52;2.80;99.90
14000;DHT22;7075;53.574;10.054;2023-01-26T14:31:22;2.80;99.90
14000;DHT22;7075;53.574;10.054;2023-01-26T14:33:57;2.90;99.90
14000;DHT22;7075;53.574;10.054;2023-01-26T14:36:30;2.90;99.90
14000;DHT22;7075;53.574;10.054;2023-01-26T14:39:18;2.90;99.90
14000;DHT22;7075;53.574;10.054;2023-01-26T14:41:44;2.90;99.90
14000;DHT22;7075;53.574;10.054;2023-01-26T14:44:11;3.00;99.90
14000;DHT22;7075;53.574;10.054;2023-01-26T14:47:19;2.90;99.90
14000;DHT22;7075;53.574;10.054;2023-01-26T14:52:21;2.90;99.90
14000;DHT22;7075;53.574;10.054;2023-01-26T14:54:49;2.90;99.90
14000;DHT22;7075;53.574;10.054;2023-01-26T14:57:18;3.00;99.90
14000;DHT22;7075;53.574;10.054;2023-01-26T14:59:48;3.00;99.90
14000;DHT22;7075;53.574;10.054;2023-01-26T15:02:21;3.00;99.90
14000;DHT22;7075;53.574;10.054;2023-01-26T15:04:53;3.00;99.90
14000;DHT22;7075;53.574;10.054;2023-01-26T15:07:21;3.00;99.90
14000;DHT22;7075;53.574;10.054;2023-01-26T15:09:52;3.00;99.90
14000;DHT22;7075;53.574;10.054;2023-01-26T15:12:17;3.00;99.90
14000;DHT22;7075;53.574;10.054;2023-01-26T15:14:47;3.10;99.90
14000;DHT22;7075;53.574;10.054;2023-01-26T15:17:36;3.20;99.90
14000;DHT22;7075;53.574;10.054;2023-01-26T15:20:56;4.20;99.90
14000;DHT22;7075;53.574;10.054;2023-01-26T15:22:56;3.80;99.90
14000;DHT22;7075;53.574;10.054;2023-01-26T15:25:24;3.70;99.90
14000;DHT22;7075;53.574;10.054;2023-01-26T15:27:57;3.60;99.90
14000;DHT22;7075;53.574;10.054;2023-01-26T15:30:32;3.50;99.90
14000;DHT22;7075;53.574;10.054;2023-01-26T15:33:02;3.40;99.90
14000;DHT22;7075;53.574;10.054;2023-01-26T15:35:32;3.30;99.90
14000;DHT22;7075;53.574;10.054;2023-01-26T15:38:04;3.30;99.90
14000;DHT22;7075;53.574;10.054;2023-01-26T15:40:30;3.30;99.90
14000;DHT22;7075;53.574;10.054;2023-01-26T15:43:13;3.20;99.90
14000;DHT22;7075;53.574;10.054;2023-01-26T15:45:52;3.20;99.90
14000;DHT22;7075;53.574;10.054;2023-01-26T15:48:20;3.20;99.90
14000;DHT22;7075;53.574;10.054;2023-01-26T15:50:46;3.30;99.90
14000;DHT22;7075;53.574;10.054;2023-01-26T15:53:17;3.30;99.90
14000;DHT22;7075;53.574;10.054;2023-01-26T15:55:45;3.20;99.90
14000;DHT22;7075;53.574;10.054;2023-01-26T15:58:20;3.20;99.90
14000;DHT22;7075;53.574;10.054;2023-01-26T16:00:47;3.20;99.90
14000;DHT22;7075;53.574;10.054;2023-01-26T16:03:18;3.20;99.90
14000;DHT22;7075;53.574;10.054;2023-01-26T16:05:45;3.30;99.90
14000;DHT22;7075;53.574;10.054;2023-01-26T16:08:18;3.30;99.90
14000;DHT22;7075;53.574;10.054;2023-01-26T16:10:44;3.30;99.90
14000;DHT22;7075;53.574;10.054;2023-01-26T16:13:12;3.40;99.90
14000;DHT22;7075;53.574;10.054;2023-01-26T16:15:46;3.40;99.90
14000;DHT22;7075;53.574;10.054;2023-01-26T16:18:12;3.40;99.90
14000;DHT22;7075;53.574;10.054;2023-01-26T16:20:41;3.40;99.90
14000;DHT22;7075;53.574;10.054;2023-01-26T16:23:22;3.40;99.90
14000;DHT22;7075;53.574;10.054;2023-01-26T16:25:48;3.40;99.90
14000;DHT22;7075;53.574;10.054;2023-01-26T16:28:20;3.40;99.90
14000;DHT22;7075;53.574;10.054;2023-01-26T16:30:47;3.50;99.90
14000;DHT22;7075;53.574;10.054;2023-01-26T16:33:17;3.50;99.90
14000;DHT22;7075;53.574;10.054;2023-01-26T16:35:45;3.50;99.90
14000;DHT22;7075;53.574;10.054;2023-01-26T16:38:11;3.60;99.90
14000;DHT22;7075;53.574;10.054;2023-01-26T16:40:41;3.60;99.90
14000;DHT22;7075;53.574;10.054;2023-01-26T16:43:21;3.60;99.90
14000;DHT22;7075;53.574;10.054;2023-01-26T16:45:46;3.60;99.90
14000;DHT22;7075;53.574;10.054;2023-01-26T16:48:14;3.60;99.90
14000;DHT22;7075;53.574;10.054;2023-01-26T16:50:40;3.60;99.90
14000;DHT22;7075;53.574;10.054;2023-01-26T16:53:29;3.70;99.90
14000;DHT22;7075;53.574;10.054;2023-01-26T16:55:57;3.70;99.90
14000;DHT22;7075;53.574;10.054;2023-01-26T16:58:23;3.70;99.90
14000;DHT22;7075;53.574;10.054;2023-01-26T17:00:51;3.70;99.90
14000;DHT22;7075;53.574;10.054;2023-01-26T17:03:17;3.70;99.90
14000;DHT22;7075;53.574;10.054;2023-01-26T17:05:43;3.70;99.90
14000;DHT22;7075;53.574;10.054;2023-01-26T17:08:08;3.80;99.90
14000;DHT22;7075;53.574;10.054;2023-01-26T17:10:34;3.70;99.90
14000;DHT22;7075;53.574;10.054;2023-01-26T17:13:00;3.70;99.90
14000;DHT22;7075;53.574;10.054;2023-01-26T17:15:25;3.80;99.90
14000;DHT22;7075;53.574;10.054;2023-01-26T17:17:52;3.80;99.90
14000;DHT22;7075;53.574;10.054;2023-01-26T17:20:18;3.80;99.90
14000;DHT22;7075;53.574;10.054;2023-01-26T17:22:44;3.90;99.90
14000;DHT22;7075;53.574;10.054;2023-01-26T17:25:09;3.90;99.90
14000;DHT22;7075;53.574;10.054;2023-01-26T17:27:35;3.90;99.90
14000;DHT22;7075;53.574;10.054;2023-01-26T17:30:01;3.90;99.90
14000;DHT22;7075;53.574;10.054;2023-01-26T17:32:29;3.90;99.90
14000;DHT22;7075;53.574;10.054;2023-01-26T17:34:54;3.90;99.90
14000;DHT22;7075;53.574;10.054;2023-01-26T17:37:22;3.90;99.90
14000;DHT22;7075;53.574;10.054;2023-01-26T17:39:49;3.90;99.90